Time;durP1;ratioP1;P1;durP2;ratioP2;P2;SDS_P1;SDS_P2;PMS_P1;PMS_P2;Temp;Humidity;BMP_temperature;BMP_pressure;BME280_temperature;BME280_humidity;BME280_pressure;Samples;Min_cycle;Max_cycle;Signal;HPM_P1;HPM_P2
2022/10/16 00:01:42;;;;;;;;;;;28.90;78.10;;;;;;5045813;28;19913;-74
2022/10/16 00:04:09;;;;;;;;;;;29.20;76.40;;;;;;5051132;28;19917;-73
2022/10/16 00:06:35;;;;;;;;;;;29.20;76.20;;;;;;5054748;28;19909;-73
2022/10/16 00:09:02;;;;;;;;;;;29.10;74.90;;;;;;5052176;28;20007;-73
2022/10/16 00:11:39;;;;;;;;;;;28.30;74.70;;;;;;5053979;28;20282;-73
2022/10/16 00:14:07;;;;;;;;;;;27.70;76.30;;;;;;5051110;28;19917;-73
2022/10/16 00:16:34;;;;;;;;;;;27.00;76.80;;;;;;5051657;28;19920;-73
2022/10/16 00:19:00;;;;;;;;;;;26.60;77.00;;;;;;5052175;28;19951;-74
2022/10/16 00:21:28;;;;;;;;;;;26.70;80.20;;;;;;5053080;28;19913;-71
2022/10/16 00:23:59;;;;;;;;;;;26.50;77.10;;;;;;5046831;28;20031;-72
2022/10/16 00:26:27;;;;;;;;;;;26.00;78.40;;;;;;5041971;28;19933;-72
2022/10/16 00:28:54;;;;;;;;;;;25.90;80.00;;;;;;5052760;28;20302;-72
2022/10/16 00:31:21;;;;;;;;;;;26.20;79.00;;;;;;5051204;28;19928;-72
2022/10/16 00:33:48;;;;;;;;;;;26.80;79.40;;;;;;5045983;28;19956;-71
2022/10/16 00:36:16;;;;;;;;;;;27.40;79.70;;;;;;5045329;28;20363;-72
2022/10/16 00:38:43;;;;;;;;;;;27.70;78.80;;;;;;5048953;28;19920;-72
2022/10/16 00:41:18;;;;;;;;;;;27.40;77.00;;;;;;5054351;28;19913;-75
2022/10/16 00:43:46;;;;;;;;;;;26.90;78.10;;;;;;5049063;28;19919;-74
2022/10/16 00:46:21;;;;;;;;;;;27.10;81.50;;;;;;5053704;28;19915;-75
2022/10/16 00:49:11;;;;;;;;;;;27.70;81.70;;;;;;5048671;28;20386;-73
2022/10/16 00:51:42;;;;;;;;;;;28.10;81.40;;;;;;5046656;28;19917;-75
2022/10/16 00:54:13;;;;;;;;;;;27.90;78.10;;;;;;5050567;28;19909;-75
2022/10/16 00:56:40;;;;;;;;;;;27.90;78.80;;;;;;5051782;28;19932;-76
2022/10/16 00:59:10;;;;;;;;;;;28.00;79.50;;;;;;5052114;28;19920;-75
2022/10/16 01:01:37;;;;;;;;;;;28.40;80.80;;;;;;5053229;28;19912;-75
2022/10/16 01:04:04;;;;;;;;;;;28.80;79.80;;;;;;5046599;28;19913;-74
2022/10/16 01:06:35;;;;;;;;;;;29.20;78.80;;;;;;5053225;28;19916;-73
2022/10/16 01:09:27;;;;;;;;;;;29.20;75.70;;;;;;5051033;28;19909;-73
2022/10/16 01:11:55;;;;;;;;;;;29.30;74.80;;;;;;5017690;28;19913;-73
2022/10/16 01:14:24;;;;;;;;;;;29.20;77.90;;;;;;5047363;28;19995;-72
2022/10/16 01:17:14;;;;;;;;;;;29.30;75.90;;;;;;5052854;28;19987;-73
2022/10/16 01:20:06;;;;;;;;;;;28.80;75.70;;;;;;5040554;28;20268;-73
2022/10/16 01:22:51;;;;;;;;;;;28.60;76.80;;;;;;5040092;28;19943;-72
2022/10/16 01:25:50;;;;;;;;;;;28.30;76.20;;;;;;5044949;28;19931;-73
2022/10/16 01:28:17;;;;;;;;;;;28.40;75.70;;;;;;5023256;28;19920;-72
2022/10/16 01:30:45;;;;;;;;;;;28.70;77.30;;;;;;5046662;28;19958;-72
2022/10/16 01:33:17;;;;;;;;;;;29.00;76.60;;;;;;5047049;28;19916;-72
2022/10/16 01:35:47;;;;;;;;;;;29.20;74.40;;;;;;5048600;28;20430;-73
2022/10/16 01:38:23;;;;;;;;;;;29.10;77.60;;;;;;5049766;28;20407;-72
2022/10/16 01:40:52;;;;;;;;;;;29.10;74.80;;;;;;5048317;28;20051;-72
2022/10/16 01:43:27;;;;;;;;;;;28.70;74.60;;;;;;5050942;28;19962;-72
2022/10/16 01:45:54;;;;;;;;;;;28.70;78.80;;;;;;5049570;28;19916;-72
2022/10/16 01:48:22;;;;;;;;;;;29.00;76.50;;;;;;5046862;28;20279;-72
2022/10/16 01:51:18;;;;;;;;;;;29.50;78.30;;;;;;5051345;28;19916;-72
2022/10/16 01:53:48;;;;;;;;;;;29.60;75.70;;;;;;5034578;28;19939;-72
2022/10/16 01:56:16;;;;;;;;;;;29.70;74.50;;;;;;5048848;28;19917;-69
2022/10/16 01:58:47;;;;;;;;;;;29.50;75.30;;;;;;5045106;28;20740;-72
2022/10/16 02:01:15;;;;;;;;;;;30.00;79.90;;;;;;5041283;28;20355;-74
2022/10/16 02:03:43;;;;;;;;;;;30.40;78.00;;;;;;5049018;28;19920;-73
2022/10/16 02:06:10;;;;;;;;;;;29.90;75.90;;;;;;5050169;28;19964;-74
2022/10/16 02:08:38;;;;;;;;;;;29.60;76.40;;;;;;5047088;28;19916;-73
2022/10/16 02:11:05;;;;;;;;;;;29.80;76.30;;;;;;5048690;28;19968;-73
2022/10/16 02:13:50;;;;;;;;;;;29.90;74.90;;;;;;5049199;28;19912;-74
2022/10/16 02:16:17;;;;;;;;;;;30.00;74.80;;;;;;5043350;28;19920;-74
2022/10/16 02:18:44;;;;;;;;;;;29.90;76.70;;;;;;5046105;28;19931;-72
2022/10/16 02:21:17;;;;;;;;;;;29.70;75.80;;;;;;5050280;28;19943;-73
2022/10/16 02:24:00;;;;;;;;;;;29.70;77.80;;;;;;5044869;28;20402;-73
2022/10/16 02:26:41;;;;;;;;;;;29.50;76.70;;;;;;5044373;28;19950;-72
2022/10/16 02:29:10;;;;;;;;;;;29.20;76.40;;;;;;5046721;28;20260;-72
2022/10/16 02:31:41;;;;;;;;;;;28.80;76.70;;;;;;5052633;28;20003;-72
2022/10/16 02:34:10;;;;;;;;;;;28.30;76.50;;;;;;5044769;28;19924;-72
2022/10/16 02:36:37;;;;;;;;;;;28.30;77.00;;;;;;5044946;28;20290;-73
2022/10/16 02:39:04;;;;;;;;;;;28.60;77.10;;;;;;5039005;28;19928;-73
2022/10/16 02:41:31;;;;;;;;;;;29.10;78.50;;;;;;5042117;28;19966;-73
2022/10/16 02:43:58;;;;;;;;;;;29.40;77.50;;;;;;5038805;28;20588;-73
2022/10/16 02:46:25;;;;;;;;;;;29.00;76.50;;;;;;5023110;28;19956;-73
2022/10/16 02:48:51;;;;;;;;;;;28.70;78.00;;;;;;5041678;28;20005;-73
2022/10/16 02:51:18;;;;;;;;;;;28.40;77.50;;;;;;5044794;28;19921;-72
2022/10/16 02:53:45;;;;;;;;;;;28.40;79.60;;;;;;5045657;28;20252;-73
2022/10/16 02:56:12;;;;;;;;;;;29.20;78.20;;;;;;5048772;28;19912;-75
2022/10/16 02:58:38;;;;;;;;;;;29.80;76.50;;;;;;5045271;28;19925;-73
2022/10/16 03:01:05;;;;;;;;;;;30.20;74.70;;;;;;5047454;28;19963;-72
2022/10/16 03:03:31;;;;;;;;;;;30.20;75.60;;;;;;5040280;28;19999;-73
2022/10/16 03:05:58;;;;;;;;;;;30.50;74.80;;;;;;5044417;28;20005;-71
2022/10/16 03:08:25;;;;;;;;;;;29.80;73.80;;;;;;5043003;28;19928;-73
2022/10/16 03:10:52;;;;;;;;;;;28.90;74.40;;;;;;5048029;28;19936;-73
2022/10/16 03:13:20;;;;;;;;;;;28.40;77.30;;;;;;5038693;28;20626;-72
2022/10/16 03:15:46;;;;;;;;;;;27.70;77.50;;;;;;5043687;28;19917;-72
2022/10/16 03:18:13;;;;;;;;;;;27.30;79.10;;;;;;5039588;28;20359;-73
2022/10/16 03:20:40;;;;;;;;;;;26.90;79.60;;;;;;5042152;28;19928;-73
2022/10/16 03:23:08;;;;;;;;;;;26.60;80.50;;;;;;5046482;28;20007;-73
2022/10/16 03:25:34;;;;;;;;;;;26.30;81.10;;;;;;5044857;28;20019;-73
2022/10/16 03:28:01;;;;;;;;;;;26.00;81.60;;;;;;5047901;28;19920;-72
2022/10/16 03:30:28;;;;;;;;;;;25.70;81.80;;;;;;5045919;28;19912;-72
2022/10/16 03:32:54;;;;;;;;;;;25.50;82.50;;;;;;5046987;28;20313;-72
2022/10/16 03:35:22;;;;;;;;;;;25.20;83.20;;;;;;5045142;28;19978;-73
2022/10/16 03:37:48;;;;;;;;;;;25.00;83.70;;;;;;5047544;28;19921;-72
2022/10/16 03:40:15;;;;;;;;;;;24.80;84.70;;;;;;5049061;28;19928;-73
2022/10/16 03:42:45;;;;;;;;;;;24.60;84.90;;;;;;5045563;28;20244;-72
2022/10/16 03:45:12;;;;;;;;;;;24.50;85.30;;;;;;5047341;28;20015;-73
2022/10/16 03:47:38;;;;;;;;;;;24.50;84.70;;;;;;5045660;28;19917;-72
2022/10/16 03:50:05;;;;;;;;;;;24.50;85.30;;;;;;5041517;28;19917;-72
2022/10/16 03:52:32;;;;;;;;;;;24.60;85.50;;;;;;5045875;28;20317;-73
2022/10/16 03:54:59;;;;;;;;;;;24.70;85.90;;;;;;5048368;28;20006;-74
2022/10/16 03:57:26;;;;;;;;;;;25.20;86.10;;;;;;5043826;28;19920;-74
2022/10/16 03:59:52;;;;;;;;;;;25.70;84.00;;;;;;5046641;28;19916;-74
2022/10/16 04:02:19;;;;;;;;;;;26.10;83.60;;;;;;5044031;28;19936;-72
2022/10/16 04:04:46;;;;;;;;;;;26.50;83.20;;;;;;5043858;28;19970;-74
2022/10/16 04:07:12;;;;;;;;;;;26.70;82.90;;;;;;5046712;28;19939;-78
2022/10/16 04:09:39;;;;;;;;;;;26.60;82.80;;;;;;5048901;28;19913;-78
2022/10/16 04:12:06;;;;;;;;;;;26.60;82.80;;;;;;5047853;28;20512;-78
2022/10/16 04:14:32;;;;;;;;;;;26.30;82.30;;;;;;5039708;28;19935;-77
2022/10/16 04:16:59;;;;;;;;;;;26.40;83.10;;;;;;5049158;28;19978;-77
2022/10/16 04:19:26;;;;;;;;;;;26.70;82.50;;;;;;5045249;28;19921;-78
2022/10/16 04:21:52;;;;;;;;;;;26.70;82.30;;;;;;5046524;28;19943;-76
2022/10/16 04:24:19;;;;;;;;;;;26.80;83.00;;;;;;5045745;28;19925;-76
2022/10/16 04:26:46;;;;;;;;;;;26.90;83.80;;;;;;5050326;28;19913;-75
2022/10/16 04:29:12;;;;;;;;;;;27.00;83.20;;;;;;5045487;28;20484;-75
2022/10/16 04:31:39;;;;;;;;;;;27.00;83.20;;;;;;5049796;28;20420;-76
2022/10/16 04:34:06;;;;;;;;;;;27.00;81.90;;;;;;5047614;28;19917;-75
2022/10/16 04:36:32;;;;;;;;;;;27.00;82.30;;;;;;5043103;28;19912;-75
2022/10/16 04:38:59;;;;;;;;;;;26.90;82.40;;;;;;5045439;28;19925;-76
2022/10/16 04:41:26;;;;;;;;;;;26.80;83.40;;;;;;5045446;28;19926;-77
2022/10/16 04:43:52;;;;;;;;;;;26.80;83.60;;;;;;5038264;28;19913;-77
2022/10/16 04:46:19;;;;;;;;;;;26.80;82.30;;;;;;5050033;28;19920;-78
2022/10/16 04:48:46;;;;;;;;;;;26.80;83.00;;;;;;5049116;28;19917;-78
2022/10/16 04:51:13;;;;;;;;;;;26.70;83.90;;;;;;5052445;28;19920;-76
2022/10/16 04:53:40;;;;;;;;;;;26.50;84.10;;;;;;5052303;28;20003;-78
2022/10/16 04:56:06;;;;;;;;;;;26.50;84.20;;;;;;5051930;28;19913;-76
2022/10/16 04:58:33;;;;;;;;;;;26.40;83.90;;;;;;5046977;28;20636;-76
2022/10/16 05:01:00;;;;;;;;;;;26.30;85.20;;;;;;5044019;28;20473;-79
2022/10/16 05:03:26;;;;;;;;;;;26.40;83.30;;;;;;5049958;28;20398;-77
2022/10/16 05:05:53;;;;;;;;;;;26.30;83.50;;;;;;5051620;28;20275;-77
2022/10/16 05:08:20;;;;;;;;;;;26.30;83.60;;;;;;5051152;28;19917;-76
2022/10/16 05:10:47;;;;;;;;;;;26.30;83.50;;;;;;5052117;28;20003;-76
2022/10/16 05:13:13;;;;;;;;;;;26.20;84.50;;;;;;5050141;28;20388;-76
2022/10/16 05:15:40;;;;;;;;;;;26.30;84.60;;;;;;5043992;28;19923;-77
2022/10/16 05:18:07;;;;;;;;;;;26.50;84.40;;;;;;5045403;28;20050;-77
2022/10/16 05:20:33;;;;;;;;;;;26.60;83.40;;;;;;5046598;28;20282;-76
2022/10/16 05:23:00;;;;;;;;;;;26.30;83.80;;;;;;5040841;28;19928;-74
2022/10/16 05:25:27;;;;;;;;;;;26.10;84.00;;;;;;5044394;28;19936;-77
2022/10/16 05:27:54;;;;;;;;;;;25.90;84.90;;;;;;5049273;28;20383;-78
2022/10/16 05:30:20;;;;;;;;;;;25.70;85.10;;;;;;5046123;28;19916;-78
2022/10/16 05:32:48;;;;;;;;;;;25.60;85.90;;;;;;5045260;28;22042;-76
2022/10/16 05:35:15;;;;;;;;;;;25.50;85.40;;;;;;5040372;28;20010;-75
2022/10/16 05:37:42;;;;;;;;;;;25.40;85.90;;;;;;5037942;28;19924;-76
2022/10/16 05:40:09;;;;;;;;;;;25.20;86.60;;;;;;5043009;28;19987;-76
2022/10/16 05:42:35;;;;;;;;;;;25.10;86.50;;;;;;5042649;28;20341;-78
2022/10/16 05:45:02;;;;;;;;;;;25.10;86.30;;;;;;5043244;28;20294;-75
2022/10/16 05:47:29;;;;;;;;;;;24.80;86.50;;;;;;5048806;28;19967;-75
2022/10/16 05:49:55;;;;;;;;;;;24.70;86.60;;;;;;5046847;28;19931;-75
2022/10/16 05:52:22;;;;;;;;;;;24.60;87.40;;;;;;5042473;28;20219;-75
2022/10/16 05:54:49;;;;;;;;;;;24.50;87.80;;;;;;5040910;28;19917;-74
2022/10/16 05:57:16;;;;;;;;;;;24.60;89.10;;;;;;5045787;28;19956;-78
2022/10/16 05:59:43;;;;;;;;;;;24.70;88.20;;;;;;5052213;28;19921;-78
2022/10/16 06:02:13;;;;;;;;;;;24.70;87.70;;;;;;5051141;28;19965;-79
2022/10/16 06:04:40;;;;;;;;;;;24.60;88.10;;;;;;5052250;28;19912;-79
2022/10/16 06:07:06;;;;;;;;;;;24.40;89.30;;;;;;5048487;28;19975;-78
2022/10/16 06:09:33;;;;;;;;;;;24.20;89.80;;;;;;5049832;28;19913;-77
2022/10/16 06:11:59;;;;;;;;;;;24.00;90.00;;;;;;5049676;28;19921;-79
2022/10/16 06:14:26;;;;;;;;;;;23.80;90.10;;;;;;5047358;28;19913;-78
2022/10/16 06:16:53;;;;;;;;;;;23.60;90.60;;;;;;5044765;28;19931;-78
2022/10/16 06:19:20;;;;;;;;;;;23.50;90.50;;;;;;5037754;28;19929;-78
2022/10/16 06:21:47;;;;;;;;;;;23.30;90.70;;;;;;5049500;28;19913;-77
2022/10/16 06:24:14;;;;;;;;;;;23.10;91.00;;;;;;5049021;28;19913;-79
2022/10/16 06:26:41;;;;;;;;;;;23.10;91.20;;;;;;5048110;28;19925;-79
2022/10/16 06:29:08;;;;;;;;;;;23.00;91.40;;;;;;5049985;28;19917;-80
2022/10/16 06:31:35;;;;;;;;;;;23.00;91.70;;;;;;5043134;28;20018;-77
2022/10/16 06:34:04;;;;;;;;;;;22.90;91.80;;;;;;5045417;28;19916;-82
2022/10/16 06:36:31;;;;;;;;;;;22.70;92.00;;;;;;5046639;28;19917;-81
2022/10/16 06:38:57;;;;;;;;;;;22.60;92.10;;;;;;5045607;28;19986;-83
2022/10/16 06:41:24;;;;;;;;;;;22.40;92.30;;;;;;5025479;28;19912;-81
2022/10/16 06:43:52;;;;;;;;;;;22.30;92.50;;;;;;5053413;28;19974;-84
2022/10/16 06:46:20;;;;;;;;;;;22.20;92.60;;;;;;5053847;28;20327;-82
2022/10/16 06:48:46;;;;;;;;;;;22.20;92.80;;;;;;5048412;28;19924;-85
2022/10/16 06:51:14;;;;;;;;;;;22.20;92.90;;;;;;5053293;28;20012;-81
2022/10/16 06:53:42;;;;;;;;;;;22.10;93.00;;;;;;5050371;28;19924;-79
2022/10/16 06:56:19;;;;;;;;;;;22.10;93.00;;;;;;5052730;28;19913;-85
2022/10/16 06:58:46;;;;;;;;;;;22.00;93.10;;;;;;5053729;28;19920;-83
2022/10/16 07:01:14;;;;;;;;;;;22.00;93.20;;;;;;5050729;28;19916;-80
2022/10/16 07:03:41;;;;;;;;;;;21.80;93.40;;;;;;5042899;28;19917;-79
2022/10/16 07:06:09;;;;;;;;;;;21.80;93.50;;;;;;5049423;28;19920;-81
2022/10/16 07:08:36;;;;;;;;;;;21.70;93.70;;;;;;5043609;28;20295;-81
2022/10/16 07:11:04;;;;;;;;;;;21.70;93.80;;;;;;5050670;28;19912;-81
2022/10/16 07:13:33;;;;;;;;;;;21.70;93.90;;;;;;5049228;28;19916;-83
2022/10/16 07:16:07;;;;;;;;;;;21.70;93.80;;;;;;5045825;28;19955;-82
2022/10/16 07:18:34;;;;;;;;;;;21.70;93.80;;;;;;5047489;28;19916;-83
2022/10/16 07:21:04;;;;;;;;;;;21.70;94.00;;;;;;5048523;28;19999;-79
2022/10/16 07:23:31;;;;;;;;;;;21.60;94.10;;;;;;5045448;28;19913;-76
2022/10/16 07:25:58;;;;;;;;;;;21.60;94.10;;;;;;5048601;28;19932;-81
2022/10/16 07:28:24;;;;;;;;;;;21.40;94.20;;;;;;5048489;28;19913;-81
2022/10/16 07:30:51;;;;;;;;;;;21.30;94.40;;;;;;5047435;28;19959;-82
2022/10/16 07:33:18;;;;;;;;;;;21.20;94.40;;;;;;5031316;28;19913;-82
2022/10/16 07:35:51;;;;;;;;;;;21.20;94.50;;;;;;5046641;28;20381;-79
2022/10/16 07:38:18;;;;;;;;;;;21.10;94.70;;;;;;5048961;28;19976;-82
2022/10/16 07:40:45;;;;;;;;;;;20.90;95.20;;;;;;5050037;28;19924;-82
2022/10/16 07:43:12;;;;;;;;;;;20.70;95.40;;;;;;5046489;28;19916;-83
2022/10/16 07:45:46;;;;;;;;;;;20.60;95.70;;;;;;5050575;28;19948;-79
2022/10/16 07:48:13;;;;;;;;;;;20.50;95.50;;;;;;5057027;28;19917;-81
2022/10/16 07:50:39;;;;;;;;;;;20.50;95.70;;;;;;5046384;28;19917;-85
2022/10/16 07:53:06;;;;;;;;;;;20.40;95.70;;;;;;5048241;28;20042;-82
2022/10/16 07:55:32;;;;;;;;;;;20.40;95.80;;;;;;5039464;28;19913;-81
2022/10/16 07:57:59;;;;;;;;;;;20.40;95.70;;;;;;5047023;28;19970;-82
2022/10/16 08:00:26;;;;;;;;;;;20.30;95.70;;;;;;5049281;28;19924;-82
2022/10/16 08:02:52;;;;;;;;;;;20.30;95.80;;;;;;5047788;28;19916;-81
2022/10/16 08:05:20;;;;;;;;;;;20.30;95.60;;;;;;5051251;28;20047;-80
2022/10/16 08:07:50;;;;;;;;;;;20.30;95.60;;;;;;5047250;28;19913;-82
2022/10/16 08:10:17;;;;;;;;;;;20.20;95.80;;;;;;5044999;28;19912;-81
2022/10/16 08:12:43;;;;;;;;;;;20.10;96.00;;;;;;5045774;28;19912;-81
2022/10/16 08:15:10;;;;;;;;;;;20.00;96.20;;;;;;5041114;28;20012;-82
2022/10/16 08:17:37;;;;;;;;;;;19.80;96.20;;;;;;5053596;28;19921;-80
2022/10/16 08:20:04;;;;;;;;;;;19.80;96.30;;;;;;5047348;28;19920;-82
2022/10/16 08:22:31;;;;;;;;;;;19.80;96.30;;;;;;5053542;28;20298;-82
2022/10/16 08:24:57;;;;;;;;;;;19.80;96.50;;;;;;5053620;28;19921;-82
2022/10/16 08:27:24;;;;;;;;;;;19.70;96.50;;;;;;5057569;28;19939;-81
2022/10/16 08:29:51;;;;;;;;;;;19.60;96.70;;;;;;5054637;28;20691;-83
2022/10/16 08:32:17;;;;;;;;;;;19.50;96.90;;;;;;5056271;28;19934;-80
2022/10/16 08:34:44;;;;;;;;;;;19.40;97.30;;;;;;5048115;28;20004;-86
2022/10/16 08:37:13;;;;;;;;;;;19.20;97.40;;;;;;5053739;28;19917;-79
2022/10/16 08:39:39;;;;;;;;;;;19.10;97.50;;;;;;5042324;28;19927;-81
2022/10/16 08:42:24;;;;;;;;;;;19.00;97.80;;;;;;5049334;28;19917;-82
2022/10/16 08:45:00;;;;;;;;;;;18.90;98.10;;;;;;5045719;28;19957;-82
2022/10/16 08:47:36;;;;;;;;;;;18.80;98.40;;;;;;5048280;28;20480;-75
2022/10/16 08:50:10;;;;;;;;;;;18.80;98.60;;;;;;5051522;28;20377;-75
2022/10/16 08:52:39;;;;;;;;;;;18.70;98.80;;;;;;5049992;28;20010;-82
2022/10/16 08:55:06;;;;;;;;;;;18.70;99.20;;;;;;5050130;28;19913;-79
2022/10/16 08:57:33;;;;;;;;;;;18.70;99.10;;;;;;5049264;28;19924;-76
2022/10/16 09:00:13;;;;;;;;;;;18.60;99.40;;;;;;5051881;28;19935;-87
2022/10/16 09:03:02;;;;;;;;;;;18.60;99.70;;;;;;5051174;28;19963;-81
2022/10/16 09:05:37;;;;;;;;;;;18.50;99.90;;;;;;5041713;28;19995;-80
2022/10/16 09:08:10;;;;;;;;;;;18.50;99.90;;;;;;5050224;28;20007;-80
2022/10/16 09:10:36;;;;;;;;;;;18.40;99.90;;;;;;5045185;28;19938;-79
2022/10/16 09:13:23;;;;;;;;;;;18.30;99.90;;;;;;5048353;28;20286;-79
2022/10/16 09:16:08;;;;;;;;;;;18.30;99.90;;;;;;5050526;28;19960;-79
2022/10/16 09:18:35;;;;;;;;;;;18.30;99.90;;;;;;5053188;28;20302;-84
2022/10/16 09:21:11;;;;;;;;;;;18.20;99.90;;;;;;5048933;28;19920;-84
2022/10/16 09:23:38;;;;;;;;;;;18.20;99.90;;;;;;5043301;28;20104;-81
2022/10/16 09:26:08;;;;;;;;;;;18.10;99.90;;;;;;5046016;28;19925;-79
2022/10/16 09:28:35;;;;;;;;;;;18.10;99.90;;;;;;5045031;28;19952;-85
2022/10/16 09:31:02;;;;;;;;;;;18.00;99.90;;;;;;5047117;28;19913;-82
2022/10/16 09:33:39;;;;;;;;;;;18.00;99.90;;;;;;5048546;28;19916;-82
2022/10/16 09:36:06;;;;;;;;;;;18.00;99.90;;;;;;5053162;28;20537;-82
2022/10/16 09:38:35;;;;;;;;;;;17.90;99.90;;;;;;5049950;28;19966;-81
2022/10/16 09:41:22;;;;;;;;;;;17.90;99.90;;;;;;5049136;28;19913;-81
2022/10/16 09:43:52;;;;;;;;;;;17.80;99.90;;;;;;5048150;28;19939;-84
2022/10/16 09:46:45;;;;;;;;;;;17.80;99.90;;;;;;5048085;28;19924;-82
2022/10/16 09:49:23;;;;;;;;;;;17.80;99.90;;;;;;5046342;28;19916;-81
2022/10/16 09:51:50;;;;;;;;;;;17.80;99.90;;;;;;5052668;28;19928;-78
2022/10/16 09:54:18;;;;;;;;;;;17.90;99.90;;;;;;5050166;28;19986;-83
2022/10/16 09:56:49;;;;;;;;;;;17.90;99.90;;;;;;5047994;28;20053;-83
2022/10/16 09:59:17;;;;;;;;;;;18.00;99.90;;;;;;5043773;28;19929;-81
2022/10/16 10:01:47;;;;;;;;;;;18.00;99.90;;;;;;5050155;28;20378;-80
2022/10/16 10:04:15;;;;;;;;;;;18.00;99.90;;;;;;5024178;28;19916;-82
2022/10/16 10:07:01;;;;;;;;;;;18.00;99.90;;;;;;5033551;28;19926;-81
2022/10/16 10:09:34;;;;;;;;;;;18.00;99.90;;;;;;5048090;28;19958;-80
2022/10/16 10:12:04;;;;;;;;;;;18.00;99.90;;;;;;5047516;28;19920;-82
2022/10/16 10:14:35;;;;;;;;;;;18.00;99.90;;;;;;5044799;28;19920;-82
2022/10/16 10:17:05;;;;;;;;;;;18.00;99.90;;;;;;5046357;28;19916;-80
2022/10/16 10:19:45;;;;;;;;;;;17.90;99.90;;;;;;5039759;28;19920;-79
2022/10/16 10:22:31;;;;;;;;;;;17.90;99.90;;;;;;5045220;28;19956;-79
2022/10/16 10:24:58;;;;;;;;;;;17.80;99.90;;;;;;5048368;28;19925;-81
2022/10/16 10:27:33;;;;;;;;;;;17.80;99.90;;;;;;5046900;28;20333;-86
2022/10/16 10:30:22;;;;;;;;;;;17.70;99.90;;;;;;5039984;28;19916;-84
2022/10/16 10:33:07;;;;;;;;;;;17.60;99.90;;;;;;5019719;28;19931;-80
2022/10/16 10:35:39;;;;;;;;;;;17.60;99.90;;;;;;5040074;28;19916;-78
2022/10/16 10:38:06;;;;;;;;;;;17.50;99.90;;;;;;5043145;28;19963;-78
2022/10/16 10:40:36;;;;;;;;;;;17.50;99.90;;;;;;5041386;28;19925;-83
2022/10/16 10:43:06;;;;;;;;;;;17.50;99.90;;;;;;5039907;28;19928;-83
2022/10/16 10:45:53;;;;;;;;;;;17.50;99.90;;;;;;5045456;28;19921;-83
2022/10/16 10:48:35;;;;;;;;;;;17.40;99.90;;;;;;5044154;28;19921;-84
2022/10/16 10:51:05;;;;;;;;;;;17.40;99.90;;;;;;5039244;28;20635;-83
2022/10/16 10:53:50;;;;;;;;;;;17.40;99.90;;;;;;5019876;28;19963;-82
2022/10/16 10:56:19;;;;;;;;;;;17.50;99.90;;;;;;5041184;28;19912;-81
2022/10/16 10:59:01;;;;;;;;;;;17.50;99.90;;;;;;5023362;28;20283;-82
2022/10/16 11:01:57;;;;;;;;;;;17.50;99.90;;;;;;5042325;28;19920;-84
2022/10/16 11:04:42;;;;;;;;;;;17.50;99.90;;;;;;5026653;28;19919;-85
2022/10/16 11:07:14;;;;;;;;;;;17.60;99.90;;;;;;5040009;28;19935;-83
2022/10/16 11:10:07;;;;;;;;;;;17.60;99.90;;;;;;5043459;28;20015;-82
2022/10/16 11:12:40;;;;;;;;;;;17.60;99.90;;;;;;5039637;28;19982;-83
2022/10/16 11:15:13;;;;;;;;;;;17.60;99.90;;;;;;5043152;28;19932;-78
2022/10/16 11:17:42;;;;;;;;;;;17.70;99.90;;;;;;5037020;28;19913;-83
2022/10/16 11:20:11;;;;;;;;;;;17.70;99.90;;;;;;5041448;28;19917;-81
2022/10/16 11:22:40;;;;;;;;;;;17.70;99.90;;;;;;5034694;28;19939;-80
2022/10/16 11:25:15;;;;;;;;;;;17.70;99.90;;;;;;5041263;28;20022;-82
2022/10/16 11:27:41;;;;;;;;;;;17.70;99.90;;;;;;5040418;28;19916;-84
2022/10/16 11:30:37;;;;;;;;;;;17.80;99.90;;;;;;5036845;28;19921;-80
2022/10/16 11:33:22;;;;;;;;;;;17.80;99.90;;;;;;5030392;28;19916;-81
2022/10/16 11:36:11;;;;;;;;;;;17.80;99.90;;;;;;5039211;28;19926;-86
2022/10/16 11:38:37;;;;;;;;;;;17.80;99.90;;;;;;5042634;28;20147;-83
2022/10/16 11:41:16;;;;;;;;;;;17.80;99.90;;;;;;5040476;28;20011;-81
2022/10/16 11:43:45;;;;;;;;;;;17.70;99.90;;;;;;5040253;28;20370;-82
2022/10/16 11:46:20;;;;;;;;;;;17.70;99.90;;;;;;5041801;28;19916;-82
2022/10/16 11:49:16;;;;;;;;;;;17.70;99.90;;;;;;5043434;28;19917;-85
2022/10/16 11:51:45;;;;;;;;;;;17.70;99.90;;;;;;5039754;28;19917;-81
2022/10/16 11:54:15;;;;;;;;;;;17.70;99.90;;;;;;5045890;28;19913;-83
2022/10/16 11:56:45;;;;;;;;;;;17.60;99.90;;;;;;5045797;28;19955;-82
2022/10/16 11:59:18;;;;;;;;;;;17.60;99.90;;;;;;5044482;28;20019;-82
2022/10/16 12:01:51;;;;;;;;;;;17.60;99.90;;;;;;5040936;28;19931;-84
2022/10/16 12:04:23;;;;;;;;;;;17.60;99.90;;;;;;5047479;28;20003;-82
2022/10/16 12:07:02;;;;;;;;;;;17.60;99.90;;;;;;5042795;28;19921;-82
2022/10/16 12:09:34;;;;;;;;;;;17.60;99.90;;;;;;5031160;28;19928;-77
2022/10/16 12:12:02;;;;;;;;;;;17.50;99.90;;;;;;5036256;28;19917;-79
2022/10/16 12:14:35;;;;;;;;;;;17.50;99.90;;;;;;5035919;28;19924;-85
2022/10/16 12:17:05;;;;;;;;;;;17.60;99.90;;;;;;5036128;28;19920;-81
2022/10/16 12:19:32;;;;;;;;;;;17.50;99.90;;;;;;5033668;28;20401;-77
2022/10/16 12:22:03;;;;;;;;;;;17.60;99.90;;;;;;5042100;28;19952;-77
2022/10/16 12:24:37;;;;;;;;;;;17.50;99.90;;;;;;5046511;28;19925;-77
2022/10/16 12:27:06;;;;;;;;;;;17.50;99.90;;;;;;5049267;28;19920;-81
2022/10/16 12:29:45;;;;;;;;;;;17.50;99.90;;;;;;5042982;28;20943;-81
2022/10/16 12:32:39;;;;;;;;;;;17.40;99.90;;;;;;5064891;28;19913;-83
2022/10/16 12:35:07;;;;;;;;;;;17.40;99.90;;;;;;5046075;28;20367;-82
2022/10/16 12:37:34;;;;;;;;;;;17.40;99.90;;;;;;5043577;28;19943;-84
2022/10/16 12:40:13;;;;;;;;;;;17.30;99.90;;;;;;5043130;28;19924;-82
2022/10/16 12:42:40;;;;;;;;;;;17.30;99.90;;;;;;5043935;28;19917;-80
2022/10/16 12:45:24;;;;;;;;;;;17.30;99.90;;;;;;5046425;28;20579;-81
2022/10/16 12:47:53;;;;;;;;;;;17.20;99.90;;;;;;5034784;28;19917;-80
2022/10/16 12:50:24;;;;;;;;;;;17.20;99.90;;;;;;5039681;28;19920;-79
2022/10/16 12:52:51;;;;;;;;;;;17.20;99.90;;;;;;5042844;28;20469;-78
2022/10/16 12:55:19;;;;;;;;;;;17.20;99.90;;;;;;5039859;28;19920;-82
2022/10/16 12:58:04;;;;;;;;;;;17.20;99.90;;;;;;5043501;28;19916;-76
2022/10/16 13:00:33;;;;;;;;;;;17.20;99.90;;;;;;5047825;28;20367;-78
2022/10/16 13:03:18;;;;;;;;;;;17.20;99.90;;;;;;5046103;28;19943;-78
2022/10/16 13:06:03;;;;;;;;;;;17.10;99.90;;;;;;5043239;28;20007;-81
2022/10/16 13:08:39;;;;;;;;;;;17.10;99.90;;;;;;5049748;28;19913;-83
2022/10/16 13:11:06;;;;;;;;;;;17.10;99.90;;;;;;5046343;28;19928;-79
2022/10/16 13:13:47;;;;;;;;;;;17.10;99.90;;;;;;5046869;28;19956;-80
2022/10/16 13:16:26;;;;;;;;;;;17.10;99.90;;;;;;5053961;28;19912;-80
2022/10/16 13:19:11;;;;;;;;;;;17.10;99.90;;;;;;5066192;28;20359;-79
2022/10/16 13:21:44;;;;;;;;;;;17.10;99.90;;;;;;5033186;28;19920;-79
2022/10/16 13:24:14;;;;;;;;;;;17.00;99.90;;;;;;5049552;28;20401;-75
2022/10/16 13:26:56;;;;;;;;;;;17.00;99.90;;;;;;5054030;28;19939;-73
2022/10/16 13:29:23;;;;;;;;;;;17.00;99.90;;;;;;5049101;28;20345;-74
2022/10/16 13:31:50;;;;;;;;;;;17.00;99.90;;;;;;5051893;28;19975;-78
2022/10/16 13:34:18;;;;;;;;;;;17.00;99.90;;;;;;5050346;28;19920;-74
2022/10/16 13:36:49;;;;;;;;;;;17.00;99.90;;;;;;5053749;28;19908;-75
2022/10/16 13:39:27;;;;;;;;;;;17.00;99.90;;;;;;5050936;28;19921;-74
2022/10/16 13:42:05;;;;;;;;;;;17.00;99.90;;;;;;5052163;28;19913;-74
2022/10/16 13:44:36;;;;;;;;;;;17.00;99.90;;;;;;5052102;28;19920;-76
2022/10/16 13:47:02;;;;;;;;;;;17.00;99.90;;;;;;5052874;28;19931;-74
2022/10/16 13:49:29;;;;;;;;;;;17.00;99.90;;;;;;5046342;28;19916;-75
2022/10/16 13:51:56;;;;;;;;;;;17.00;99.90;;;;;;5045370;28;19924;-75
2022/10/16 13:54:24;;;;;;;;;;;17.00;99.90;;;;;;5050031;28;19948;-75
2022/10/16 13:56:51;;;;;;;;;;;17.00;99.90;;;;;;5032992;28;20000;-74
2022/10/16 13:59:23;;;;;;;;;;;17.00;99.90;;;;;;5041471;28;20023;-75
2022/10/16 14:01:53;;;;;;;;;;;17.10;99.90;;;;;;5045203;28;20042;-75
2022/10/16 14:04:20;;;;;;;;;;;17.00;99.90;;;;;;5045600;28;20014;-76
2022/10/16 14:06:49;;;;;;;;;;;17.00;99.90;;;;;;5044438;28;19917;-78
2022/10/16 14:09:27;;;;;;;;;;;17.00;99.90;;;;;;5048702;28;19962;-77
2022/10/16 14:11:55;;;;;;;;;;;17.00;99.90;;;;;;5051196;28;19920;-76
2022/10/16 14:14:22;;;;;;;;;;;17.00;99.90;;;;;;5050564;28;20023;-76
2022/10/16 14:16:49;;;;;;;;;;;17.00;99.90;;;;;;5045265;28;19923;-76
2022/10/16 14:19:27;;;;;;;;;;;17.00;99.90;;;;;;5047947;28;20009;-77
2022/10/16 14:21:54;;;;;;;;;;;17.00;99.90;;;;;;5048580;28;19924;-78
2022/10/16 14:24:31;;;;;;;;;;;17.00;99.90;;;;;;5050784;28;19924;-78
2022/10/16 14:26:58;;;;;;;;;;;17.00;99.90;;;;;;5047158;28;19924;-75
2022/10/16 14:29:25;;;;;;;;;;;17.00;99.90;;;;;;5048094;28;19913;-75
2022/10/16 14:31:59;;;;;;;;;;;17.00;99.90;;;;;;5046497;28;19916;-76
2022/10/16 14:34:48;;;;;;;;;;;17.00;99.90;;;;;;5019906;28;19924;-75
2022/10/16 14:37:21;;;;;;;;;;;17.00;99.90;;;;;;5048736;28;19959;-74